createdAt,value
2023-03-06T00:01:24.390Z,9.73
2023-03-06T00:06:26.034Z,10.40
2023-03-06T00:11:27.556Z,8.80
2023-03-06T00:23:16.120Z,4.93
2023-03-06T00:28:17.813Z,4.63
2023-03-06T00:40:12.321Z,4.37
2023-03-06T00:45:14.560Z,4.53
2023-03-06T00:50:16.234Z,4.63
2023-03-06T00:55:17.792Z,4.13
2023-03-06T01:00:19.616Z,4.37
2023-03-06T01:05:24.810Z,4.17
2023-03-06T01:10:27.259Z,4.87
2023-03-06T01:15:29.294Z,4.40
2023-03-06T01:20:32.216Z,4.27
2023-03-06T01:25:33.794Z,4.40
2023-03-06T01:30:35.511Z,4.90
2023-03-06T01:35:38.573Z,4.63
2023-03-06T01:40:40.261Z,6.23
2023-03-06T01:45:41.728Z,4.63
2023-03-06T01:50:43.859Z,6.03
2023-03-06T01:55:45.535Z,5.43
2023-03-06T02:00:47.261Z,5.33
2023-03-06T02:05:48.878Z,5.53
2023-03-06T02:11:18.469Z,5.87
2023-03-06T02:16:25.673Z,6.30
2023-03-06T02:21:32.680Z,6.37
2023-03-06T02:26:36.237Z,6.23
2023-03-06T02:31:38.026Z,8.67
2023-03-06T02:36:43.341Z,7.93
2023-03-06T02:41:45.392Z,8.20
2023-03-06T02:46:48.680Z,8.17
2023-03-06T02:51:50.360Z,8.83
2023-03-06T02:56:51.908Z,8.03
2023-03-06T03:01:53.789Z,9.80
2023-03-06T03:06:55.423Z,8.80
2023-03-06T03:11:57.633Z,10.97
2023-03-06T03:16:59.397Z,11.40
2023-03-06T03:22:01.843Z,10.30
2023-03-06T03:27:03.659Z,9.80
2023-03-06T03:32:06.211Z,10.37
2023-03-06T03:37:09.252Z,8.67
2023-03-06T03:42:12.434Z,9.50
2023-03-06T03:47:14.831Z,9.67
2023-03-06T03:52:16.683Z,10.37
2023-03-06T03:57:18.476Z,10.63
2023-03-06T04:02:25.459Z,9.53
2023-03-06T04:07:47.558Z,8.73
2023-03-06T04:12:50.288Z,9.57
2023-03-06T04:17:52.400Z,10.13
2023-03-06T04:22:57.554Z,9.23
2023-03-06T04:27:59.503Z,13.00
2023-03-06T04:33:03.187Z,11.13
2023-03-06T04:38:06.145Z,11.53
2023-03-06T04:43:09.230Z,9.47
2023-03-06T04:48:14.639Z,10.27
2023-03-06T04:53:20.214Z,11.60
2023-03-06T04:58:21.826Z,13.70
2023-03-06T05:03:23.361Z,15.40
2023-03-06T05:08:24.914Z,13.60
2023-03-06T05:13:27.086Z,13.27
2023-03-06T05:18:29.612Z,13.90
2023-03-06T05:23:33.149Z,15.03
2023-03-06T05:28:35.161Z,16.10
2023-03-06T05:33:36.958Z,15.63
2023-03-06T05:38:38.543Z,14.30
2023-03-06T05:43:41.129Z,15.40
2023-03-06T05:48:42.636Z,14.13
2023-03-06T05:53:44.202Z,14.37
2023-03-06T05:58:46.513Z,16.33
2023-03-06T06:03:48.336Z,15.10
2023-03-06T06:08:50.092Z,14.80
2023-03-06T06:13:51.702Z,14.27
2023-03-06T06:18:53.246Z,15.43
2023-03-06T06:23:54.982Z,16.97
2023-03-06T06:28:57.998Z,17.93
2023-03-06T06:34:01.372Z,16.70
2023-03-06T06:39:03.579Z,20.13
2023-03-06T06:44:12.527Z,18.93
2023-03-06T06:49:14.800Z,15.63
2023-03-06T06:54:16.431Z,16.03
2023-03-06T06:59:18.128Z,19.33
2023-03-06T07:04:20.082Z,20.67
2023-03-06T07:09:22.304Z,19.37
2023-03-06T07:14:24.113Z,20.30
2023-03-06T07:19:25.862Z,20.07
2023-03-06T07:24:28.041Z,17.57
2023-03-06T07:29:29.701Z,20.33
2023-03-06T07:34:31.329Z,18.00
2023-03-06T07:39:32.875Z,19.83
2023-03-06T07:44:38.075Z,18.80
2023-03-06T07:49:39.888Z,19.83
2023-03-06T07:54:42.085Z,19.50
2023-03-06T07:59:43.648Z,24.27
2023-03-06T08:04:45.304Z,21.43
2023-03-06T08:09:46.862Z,19.33
2023-03-06T08:14:48.460Z,16.80
2023-03-06T08:19:51.114Z,15.97
2023-03-06T08:24:55.798Z,16.87
2023-03-06T08:29:57.465Z,16.73
2023-03-06T08:34:58.997Z,16.90
2023-03-06T08:40:02.572Z,18.57
2023-03-06T08:45:05.198Z,16.73
2023-03-06T08:50:07.052Z,20.70
2023-03-06T08:55:09.178Z,21.60
2023-03-06T09:00:11.465Z,18.33
2023-03-06T09:05:13.091Z,20.70
2023-03-06T09:10:16.473Z,17.47
2023-03-06T09:15:20.117Z,16.27
2023-03-06T09:20:22.378Z,14.83
2023-03-06T09:25:24.776Z,16.10
2023-03-06T09:30:26.656Z,13.53
2023-03-06T09:35:28.258Z,15.70
2023-03-06T09:41:02.085Z,15.40
2023-03-06T09:46:16.664Z,16.33
2023-03-06T09:51:22.059Z,16.87
2023-03-06T09:56:30.085Z,16.70
2023-03-06T10:01:35.350Z,17.10
2023-03-06T10:06:47.657Z,17.27
2023-03-06T10:11:55.795Z,16.30
2023-03-06T10:16:58.506Z,17.03
2023-03-06T10:22:12.096Z,18.00
2023-03-06T10:27:37.766Z,15.53
2023-03-06T10:32:49.446Z,13.23
2023-03-06T10:37:59.806Z,13.70
2023-03-06T10:43:11.094Z,13.83
2023-03-06T10:48:21.970Z,12.20
2023-03-06T10:53:31.363Z,11.10
2023-03-06T10:58:33.532Z,10.60
2023-03-06T11:03:37.014Z,9.10
2023-03-06T11:08:39.497Z,12.10
2023-03-06T11:13:43.516Z,10.53
2023-03-06T11:18:56.162Z,9.60
2023-03-06T11:24:19.559Z,14.00
2023-03-06T11:29:30.813Z,12.60
2023-03-06T11:35:03.387Z,12.07
2023-03-06T11:40:11.052Z,11.63
2023-03-06T11:45:32.017Z,12.37
2023-03-06T11:50:36.773Z,12.93
2023-03-06T11:55:59.266Z,11.70
2023-03-06T12:01:33.489Z,10.20
2023-03-06T12:06:38.972Z,10.00
2023-03-06T12:11:57.676Z,9.33
2023-03-06T12:17:08.828Z,10.83
2023-03-06T12:22:31.845Z,10.33
2023-03-06T12:27:58.941Z,9.27
2023-03-06T12:33:35.999Z,11.07
2023-03-06T12:38:52.933Z,11.83
2023-03-06T12:44:07.318Z,10.60
2023-03-06T12:49:20.124Z,11.70
2023-03-06T12:54:29.927Z,11.47
2023-03-06T12:59:40.243Z,10.70
2023-03-06T13:05:12.664Z,9.50
2023-03-06T13:10:35.359Z,10.13
2023-03-06T13:16:05.134Z,8.93
2023-03-06T13:21:41.437Z,11.57
2023-03-06T13:26:42.903Z,11.23
2023-03-06T13:31:44.522Z,10.40
2023-03-06T13:36:46.192Z,10.00
2023-03-06T13:41:58.235Z,11.43
2023-03-06T13:47:01.735Z,9.80
2023-03-06T13:52:09.230Z,12.77
2023-03-06T13:57:38.608Z,12.17
2023-03-06T14:02:49.472Z,10.80
2023-03-06T14:08:09.527Z,10.43
2023-03-06T14:13:32.206Z,9.40
2023-03-06T14:18:49.630Z,10.03
2023-03-06T14:24:01.031Z,9.53
2023-03-06T14:29:04.049Z,12.30
2023-03-06T14:34:07.298Z,10.07
2023-03-06T14:39:13.747Z,10.83
2023-03-06T14:44:17.635Z,11.70
2023-03-06T14:49:21.179Z,11.40
2023-03-06T14:54:29.282Z,10.77
2023-03-06T14:59:35.202Z,14.73
2023-03-06T15:04:58.661Z,12.63
2023-03-06T15:10:00.897Z,11.73
2023-03-06T15:15:05.246Z,14.23
2023-03-06T15:20:27.778Z,15.07
2023-03-06T15:25:30.613Z,12.43
2023-03-06T15:30:36.595Z,11.57
2023-03-06T15:35:38.601Z,13.30
2023-03-06T15:40:40.380Z,12.17
2023-03-06T15:45:42.081Z,10.30
2023-03-06T15:50:43.750Z,10.27
2023-03-06T15:55:46.850Z,12.17
2023-03-06T16:00:48.547Z,9.43
2023-03-06T16:05:50.169Z,10.83
2023-03-06T16:10:52.490Z,10.50
2023-03-06T16:15:55.608Z,9.73
2023-03-06T16:20:57.293Z,10.67
2023-03-06T16:25:59.712Z,9.63
2023-03-06T16:31:01.387Z,9.80
2023-03-06T16:36:13.037Z,10.47
2023-03-06T16:41:16.100Z,10.07
2023-03-06T16:46:20.502Z,13.00
2023-03-06T16:51:23.304Z,12.03
2023-03-06T16:56:25.180Z,12.10
2023-03-06T17:01:27.350Z,11.40
2023-03-06T17:06:30.298Z,13.07
2023-03-06T17:11:32.824Z,13.60
2023-03-06T17:16:34.515Z,15.17
2023-03-06T17:21:38.459Z,12.97
2023-03-06T17:26:40.216Z,14.43
2023-03-06T17:31:42.047Z,13.13
2023-03-06T17:36:44.043Z,12.50
2023-03-06T17:41:46.535Z,13.33
2023-03-06T17:46:48.592Z,13.30
2023-03-06T17:51:50.288Z,11.67
2023-03-06T17:56:53.247Z,13.23
2023-03-06T18:01:58.383Z,13.13
2023-03-06T18:07:00.242Z,11.97
2023-03-06T18:12:01.946Z,13.60
2023-03-06T18:17:03.809Z,15.87
2023-03-06T18:22:05.466Z,14.10
2023-03-06T18:27:07.148Z,13.27
2023-03-06T18:32:10.862Z,12.63
2023-03-06T18:37:12.470Z,14.87
2023-03-06T18:42:14.127Z,11.93
2023-03-06T18:47:15.818Z,13.17
2023-03-06T18:52:17.488Z,13.20
2023-03-06T18:57:19.019Z,14.37
2023-03-06T19:02:21.074Z,14.90
2023-03-06T19:07:22.692Z,14.80
2023-03-06T19:12:24.338Z,15.47
2023-03-06T19:17:26.010Z,15.20
2023-03-06T19:22:27.598Z,18.13
2023-03-06T19:27:30.105Z,18.40
2023-03-06T19:32:32.524Z,14.50
2023-03-06T19:37:34.463Z,14.83
2023-03-06T19:42:36.395Z,11.77
2023-03-06T19:47:38.000Z,12.63
2023-03-06T19:52:39.574Z,13.00
2023-03-06T19:57:45.438Z,10.80
2023-03-06T20:02:47.434Z,13.57
2023-03-06T20:07:49.627Z,11.43
2023-03-06T20:12:51.327Z,9.83
2023-03-06T20:17:52.876Z,9.43
2023-03-06T20:22:54.884Z,9.60
2023-03-06T20:27:56.742Z,10.53
2023-03-06T20:32:58.450Z,9.23
2023-03-06T20:38:00.664Z,9.80
2023-03-06T20:43:02.442Z,11.27
2023-03-06T20:48:04.006Z,10.20
2023-03-06T20:53:05.689Z,10.47
2023-03-06T20:58:07.319Z,11.70
2023-03-06T21:03:09.222Z,9.77
2023-03-06T21:08:10.779Z,10.70
2023-03-06T21:13:12.798Z,12.83
2023-03-06T21:18:14.803Z,11.53
2023-03-06T21:23:16.576Z,11.33
2023-03-06T21:28:19.087Z,12.50
2023-03-06T21:33:20.880Z,9.90
2023-03-06T21:38:22.466Z,12.77
2023-03-06T21:43:24.378Z,13.00
2023-03-06T21:48:26.025Z,15.80
2023-03-06T21:53:27.577Z,14.13
2023-03-06T21:58:29.481Z,11.40
2023-03-06T22:03:31.104Z,12.83
2023-03-06T22:08:32.624Z,14.30
2023-03-06T22:13:34.281Z,12.43
2023-03-06T22:18:36.476Z,12.07
2023-03-06T22:23:38.697Z,14.73
2023-03-06T22:28:41.145Z,14.27
2023-03-06T22:33:43.142Z,13.33
2023-03-06T22:38:45.733Z,12.27
2023-03-06T22:43:48.354Z,13.77
2023-03-06T22:48:50.103Z,11.93
2023-03-06T22:53:51.974Z,12.03
2023-03-06T22:58:53.615Z,14.53
2023-03-06T23:03:57.567Z,11.63
2023-03-06T23:09:03.844Z,14.27
2023-03-06T23:14:06.116Z,10.70
2023-03-06T23:19:26.705Z,10.57
2023-03-06T23:24:46.883Z,11.50
2023-03-06T23:29:55.248Z,13.97
2023-03-06T23:34:56.848Z,11.93
2023-03-06T23:39:58.478Z,10.03
2023-03-06T23:45:00.175Z,9.03
2023-03-06T23:50:02.707Z,9.73
2023-03-06T23:55:06.697Z,8.60
